sensor_id;sensor_type;location;lat;lon;timestamp;temperature;humidity
21489;DHT22;10906;45.194;5.684;2023-03-03T06:01:20;5.10;93.40
21489;DHT22;10906;45.194;5.684;2023-03-03T06:04:05;5.10;93.40
21489;DHT22;10906;45.194;5.684;2023-03-03T06:06:50;5.10;93.40
21489;DHT22;10906;45.194;5.684;2023-03-03T06:09:34;5.10;93.50
21489;DHT22;10906;45.194;5.684;2023-03-03T06:12:19;5.10;93.50
21489;DHT22;10906;45.194;5.684;2023-03-03T06:15:05;5.00;93.50
21489;DHT22;10906;45.194;5.684;2023-03-03T06:17:50;5.10;93.50
21489;DHT22;10906;45.194;5.684;2023-03-03T06:20:35;5.10;93.60
21489;DHT22;10906;45.194;5.684;2023-03-03T06:23:20;5.10;93.70
21489;DHT22;10906;45.194;5.684;2023-03-03T06:26:04;5.10;93.60
21489;DHT22;10906;45.194;5.684;2023-03-03T06:28:49;5.10;93.70
21489;DHT22;10906;45.194;5.684;2023-03-03T06:31:36;5.10;93.70
21489;DHT22;10906;45.194;5.684;2023-03-03T06:34:21;5.10;93.70
21489;DHT22;10906;45.194;5.684;2023-03-03T06:37:05;5.10;93.80
21489;DHT22;10906;45.194;5.684;2023-03-03T06:39:49;5.10;93.80
21489;DHT22;10906;45.194;5.684;2023-03-03T06:42:35;5.10;94.40
21489;DHT22;10906;45.194;5.684;2023-03-03T06:45:20;5.10;94.00
21489;DHT22;10906;45.194;5.684;2023-03-03T06:48:05;5.10;94.00
21489;DHT22;10906;45.194;5.684;2023-03-03T06:50:49;5.10;93.90
21489;DHT22;10906;45.194;5.684;2023-03-03T06:53:34;5.10;94.10
21489;DHT22;10906;45.194;5.684;2023-03-03T06:56:18;5.20;94.00
21489;DHT22;10906;45.194;5.684;2023-03-03T06:59:18;5.10;93.90
21489;DHT22;10906;45.194;5.684;2023-03-03T07:02:17;5.10;94.10
21489;DHT22;10906;45.194;5.684;2023-03-03T07:05:16;5.20;94.10
21489;DHT22;10906;45.194;5.684;2023-03-03T07:08:01;5.20;94.10
21489;DHT22;10906;45.194;5.684;2023-03-03T07:10:46;5.20;94.20
21489;DHT22;10906;45.194;5.684;2023-03-03T07:13:31;5.20;94.30
21489;DHT22;10906;45.194;5.684;2023-03-03T07:16:18;5.20;94.20
21489;DHT22;10906;45.194;5.684;2023-03-03T07:19:18;5.30;94.10
21489;DHT22;10906;45.194;5.684;2023-03-03T07:22:22;5.30;94.20
21489;DHT22;10906;45.194;5.684;2023-03-03T07:25:21;5.30;94.20
21489;DHT22;10906;45.194;5.684;2023-03-03T07:31:28;5.30;94.20
21489;DHT22;10906;45.194;5.684;2023-03-03T07:34:23;5.30;94.00
21489;DHT22;10906;45.194;5.684;2023-03-03T07:37:28;5.30;94.20
21489;DHT22;10906;45.194;5.684;2023-03-03T07:40:37;5.40;94.30
21489;DHT22;10906;45.194;5.684;2023-03-03T07:43:36;5.30;94.10
21489;DHT22;10906;45.194;5.684;2023-03-03T07:49:26;5.40;94.20
21489;DHT22;10906;45.194;5.684;2023-03-03T07:52:38;5.40;94.10
21489;DHT22;10906;45.194;5.684;2023-03-03T07:55:37;5.50;94.10
21489;DHT22;10906;45.194;5.684;2023-03-03T07:58:43;5.50;94.10
21489;DHT22;10906;45.194;5.684;2023-03-03T08:01:37;5.50;94.50
21489;DHT22;10906;45.194;5.684;2023-03-03T08:04:25;5.50;94.20
21489;DHT22;10906;45.194;5.684;2023-03-03T08:07:21;5.50;94.40
21489;DHT22;10906;45.194;5.684;2023-03-03T08:10:31;5.60;94.60
21489;DHT22;10906;45.194;5.684;2023-03-03T08:18:54;5.60;94.10
21489;DHT22;10906;45.194;5.684;2023-03-03T08:21:42;5.60;94.00
21489;DHT22;10906;45.194;5.684;2023-03-03T08:24:26;5.60;94.30
21489;DHT22;10906;45.194;5.684;2023-03-03T08:27:11;5.70;94.10
21489;DHT22;10906;45.194;5.684;2023-03-03T08:29:55;5.70;94.30
21489;DHT22;10906;45.194;5.684;2023-03-03T08:32:39;5.70;94.10
21489;DHT22;10906;45.194;5.684;2023-03-03T08:35:24;5.70;94.10
21489;DHT22;10906;45.194;5.684;2023-03-03T08:38:09;5.80;94.10
21489;DHT22;10906;45.194;5.684;2023-03-03T08:40:54;5.80;94.00
21489;DHT22;10906;45.194;5.684;2023-03-03T08:43:39;5.80;94.00
21489;DHT22;10906;45.194;5.684;2023-03-03T08:46:23;5.90;94.10
21489;DHT22;10906;45.194;5.684;2023-03-03T08:49:08;6.10;93.90
21489;DHT22;10906;45.194;5.684;2023-03-03T08:51:52;5.90;93.90
21489;DHT22;10906;45.194;5.684;2023-03-03T08:54:37;6.00;93.90
21489;DHT22;10906;45.194;5.684;2023-03-03T08:57:22;6.00;93.90
21489;DHT22;10906;45.194;5.684;2023-03-03T09:00:09;6.00;93.90
21489;DHT22;10906;45.194;5.684;2023-03-03T09:02:54;6.00;93.80
21489;DHT22;10906;45.194;5.684;2023-03-03T09:05:39;6.10;93.80
21489;DHT22;10906;45.194;5.684;2023-03-03T09:08:23;6.10;93.80
21489;DHT22;10906;45.194;5.684;2023-03-03T09:11:21;6.10;93.90
21489;DHT22;10906;45.194;5.684;2023-03-03T09:14:11;6.20;93.90
21489;DHT22;10906;45.194;5.684;2023-03-03T09:16:56;6.30;93.80
21489;DHT22;10906;45.194;5.684;2023-03-03T09:19:40;6.30;94.00
21489;DHT22;10906;45.194;5.684;2023-03-03T09:22:26;6.30;93.80
21489;DHT22;10906;45.194;5.684;2023-03-03T09:25:22;6.30;93.80
21489;DHT22;10906;45.194;5.684;2023-03-03T09:28:30;6.30;93.80
21489;DHT22;10906;45.194;5.684;2023-03-03T09:31:42;6.40;93.90
21489;DHT22;10906;45.194;5.684;2023-03-03T09:37:16;6.50;94.00
21489;DHT22;10906;45.194;5.684;2023-03-03T09:46:26;6.60;93.60
21489;DHT22;10906;45.194;5.684;2023-03-03T09:49:19;6.60;93.60
21489;DHT22;10906;45.194;5.684;2023-03-03T09:58:48;6.60;93.40
21489;DHT22;10906;45.194;5.684;2023-03-03T10:04:43;6.70;93.80
21489;DHT22;10906;45.194;5.684;2023-03-03T10:07:54;6.70;93.70
21489;DHT22;10906;45.194;5.684;2023-03-03T10:10:44;6.80;93.70
21489;DHT22;10906;45.194;5.684;2023-03-03T10:38:33;7.10;93.60
21489;DHT22;10906;45.194;5.684;2023-03-03T10:41:37;7.10;93.30
21489;DHT22;10906;45.194;5.684;2023-03-03T10:44:51;7.10;93.10
21489;DHT22;10906;45.194;5.684;2023-03-03T10:53:57;7.20;92.90
21489;DHT22;10906;45.194;5.684;2023-03-03T11:00:14;7.30;93.10
21489;DHT22;10906;45.194;5.684;2023-03-03T11:06:21;7.40;92.90
21489;DHT22;10906;45.194;5.684;2023-03-03T11:24:31;7.80;92.40
21489;DHT22;10906;45.194;5.684;2023-03-03T11:27:24;7.80;92.20
21489;DHT22;10906;45.194;5.684;2023-03-03T11:30:27;7.80;92.30
21489;DHT22;10906;45.194;5.684;2023-03-03T11:36:32;7.90;92.20
21489;DHT22;10906;45.194;5.684;2023-03-03T11:39:23;8.00;92.50
21489;DHT22;10906;45.194;5.684;2023-03-03T11:42:34;8.00;92.60
21489;DHT22;10906;45.194;5.684;2023-03-03T11:45:40;8.10;92.10
21489;DHT22;10906;45.194;5.684;2023-03-03T11:49:27;7.60;92.30
21489;DHT22;10906;45.194;5.684;2023-03-03T11:57:49;8.50;92.20
21489;DHT22;10906;45.194;5.684;2023-03-03T12:00:43;8.50;92.00
21489;DHT22;10906;45.194;5.684;2023-03-03T12:06:36;8.70;92.00
21489;DHT22;10906;45.194;5.684;2023-03-03T12:12:51;9.00;91.90
21489;DHT22;10906;45.194;5.684;2023-03-03T12:18:40;9.20;91.70
21489;DHT22;10906;45.194;5.684;2023-03-03T12:22:07;9.20;91.60
21489;DHT22;10906;45.194;5.684;2023-03-03T12:28:05;9.20;91.30
21489;DHT22;10906;45.194;5.684;2023-03-03T12:31:22;9.30;91.20
21489;DHT22;10906;45.194;5.684;2023-03-03T12:37:31;9.30;90.80
21489;DHT22;10906;45.194;5.684;2023-03-03T12:40:25;9.40;90.90
21489;DHT22;10906;45.194;5.684;2023-03-03T12:46:30;9.40;91.10
21489;DHT22;10906;45.194;5.684;2023-03-03T12:49:18;9.40;91.00
21489;DHT22;10906;45.194;5.684;2023-03-03T12:52:35;9.40;91.20
21489;DHT22;10906;45.194;5.684;2023-03-03T13:04:43;9.40;90.80
21489;DHT22;10906;45.194;5.684;2023-03-03T13:07:44;9.40;90.80
21489;DHT22;10906;45.194;5.684;2023-03-03T13:13:55;9.40;90.80
21489;DHT22;10906;45.194;5.684;2023-03-03T13:16:51;9.40;91.00
21489;DHT22;10906;45.194;5.684;2023-03-03T13:19:53;9.40;90.90
21489;DHT22;10906;45.194;5.684;2023-03-03T13:23:09;9.50;90.80
21489;DHT22;10906;45.194;5.684;2023-03-03T13:26:02;9.50;90.70
21489;DHT22;10906;45.194;5.684;2023-03-03T13:31:58;9.50;90.70
21489;DHT22;10906;45.194;5.684;2023-03-03T13:38:11;9.50;90.40
21489;DHT22;10906;45.194;5.684;2023-03-03T13:43:55;9.60;90.60
21489;DHT22;10906;45.194;5.684;2023-03-03T13:49:47;9.60;90.50
21489;DHT22;10906;45.194;5.684;2023-03-03T13:52:59;9.70;90.40
21489;DHT22;10906;45.194;5.684;2023-03-03T13:55:57;9.70;90.30
21489;DHT22;10906;45.194;5.684;2023-03-03T13:59:02;9.60;90.30
21489;DHT22;10906;45.194;5.684;2023-03-03T14:01:58;9.60;90.40
21489;DHT22;10906;45.194;5.684;2023-03-03T14:05:15;9.70;90.40
21489;DHT22;10906;45.194;5.684;2023-03-03T14:11:10;9.60;90.20
21489;DHT22;10906;45.194;5.684;2023-03-03T14:20:18;9.60;90.10
21489;DHT22;10906;45.194;5.684;2023-03-03T14:23:18;9.70;90.00
21489;DHT22;10906;45.194;5.684;2023-03-03T14:26:06;9.80;89.90
21489;DHT22;10906;45.194;5.684;2023-03-03T14:29:04;9.90;90.10
21489;DHT22;10906;45.194;5.684;2023-03-03T14:31:59;9.90;90.00
21489;DHT22;10906;45.194;5.684;2023-03-03T14:34:44;9.90;90.00
21489;DHT22;10906;45.194;5.684;2023-03-03T14:37:42;10.00;88.80
21489;DHT22;10906;45.194;5.684;2023-03-03T14:40:32;10.10;88.30
21489;DHT22;10906;45.194;5.684;2023-03-03T14:49:27;10.10;87.50
21489;DHT22;10906;45.194;5.684;2023-03-03T14:55:02;10.10;88.40
21489;DHT22;10906;45.194;5.684;2023-03-03T15:01:31;10.30;86.00
21489;DHT22;10906;45.194;5.684;2023-03-03T15:07:36;10.50;88.00
21489;DHT22;10906;45.194;5.684;2023-03-03T15:10:41;10.50;86.40
21489;DHT22;10906;45.194;5.684;2023-03-03T15:13:34;10.30;86.00
21489;DHT22;10906;45.194;5.684;2023-03-03T15:16:23;10.30;86.90
21489;DHT22;10906;45.194;5.684;2023-03-03T15:19:46;10.30;87.10
21489;DHT22;10906;45.194;5.684;2023-03-03T15:26:07;10.20;85.70
21489;DHT22;10906;45.194;5.684;2023-03-03T15:32:22;10.10;87.80
21489;DHT22;10906;45.194;5.684;2023-03-03T15:35:23;10.00;87.30
21489;DHT22;10906;45.194;5.684;2023-03-03T15:38:33;10.00;87.60
21489;DHT22;10906;45.194;5.684;2023-03-03T15:48:00;9.80;89.20
21489;DHT22;10906;45.194;5.684;2023-03-03T15:54:43;9.70;88.90
21489;DHT22;10906;45.194;5.684;2023-03-03T16:00:41;9.50;89.00
21489;DHT22;10906;45.194;5.684;2023-03-03T16:03:34;9.50;90.10
21489;DHT22;10906;45.194;5.684;2023-03-03T16:06:32;9.40;89.20
21489;DHT22;10906;45.194;5.684;2023-03-03T16:12:30;9.30;89.60
21489;DHT22;10906;45.194;5.684;2023-03-03T16:15:36;9.30;89.60
21489;DHT22;10906;45.194;5.684;2023-03-03T16:22:07;9.20;89.70
21489;DHT22;10906;45.194;5.684;2023-03-03T16:25:30;9.10;89.90
21489;DHT22;10906;45.194;5.684;2023-03-03T16:28:24;9.00;89.60
21489;DHT22;10906;45.194;5.684;2023-03-03T16:31:20;9.00;90.00
21489;DHT22;10906;45.194;5.684;2023-03-03T16:34:18;9.00;90.00
21489;DHT22;10906;45.194;5.684;2023-03-03T16:40:25;8.90;90.00
21489;DHT22;10906;45.194;5.684;2023-03-03T16:46:28;8.90;90.10
21489;DHT22;10906;45.194;5.684;2023-03-03T16:52:09;8.80;90.00
21489;DHT22;10906;45.194;5.684;2023-03-03T16:55:17;8.80;90.10
21489;DHT22;10906;45.194;5.684;2023-03-03T16:58:11;8.80;89.80
21489;DHT22;10906;45.194;5.684;2023-03-03T17:01:27;8.70;90.00
21489;DHT22;10906;45.194;5.684;2023-03-03T17:13:58;8.60;90.40
21489;DHT22;10906;45.194;5.684;2023-03-03T17:23:06;8.50;89.90
21489;DHT22;10906;45.194;5.684;2023-03-03T17:26:26;8.50;90.00
21489;DHT22;10906;45.194;5.684;2023-03-03T17:36:11;8.40;90.20
21489;DHT22;10906;45.194;5.684;2023-03-03T17:39:31;8.40;90.20
21489;DHT22;10906;45.194;5.684;2023-03-03T17:45:19;8.30;90.30
21489;DHT22;10906;45.194;5.684;2023-03-03T17:57:47;7.40;90.00
21489;DHT22;10906;45.194;5.684;2023-03-03T18:07:34;8.00;90.30
21489;DHT22;10906;45.194;5.684;2023-03-03T18:26:42;8.00;90.30
21489;DHT22;10906;45.194;5.684;2023-03-03T18:29:28;7.90;90.80
21489;DHT22;10906;45.194;5.684;2023-03-03T18:32:20;7.90;90.70
21489;DHT22;10906;45.194;5.684;2023-03-03T18:35:40;7.90;90.40
21489;DHT22;10906;45.194;5.684;2023-03-03T18:38:35;7.90;90.40
21489;DHT22;10906;45.194;5.684;2023-03-03T18:41:25;8.00;90.30
21489;DHT22;10906;45.194;5.684;2023-03-03T18:44:45;7.90;90.40
21489;DHT22;10906;45.194;5.684;2023-03-03T18:48:08;7.90;90.60
21489;DHT22;10906;45.194;5.684;2023-03-03T18:50:53;7.90;90.40
21489;DHT22;10906;45.194;5.684;2023-03-03T18:54:23;7.90;90.80
21489;DHT22;10906;45.194;5.684;2023-03-03T18:57:17;7.80;90.20
21489;DHT22;10906;45.194;5.684;2023-03-03T19:00:20;8.60;90.70
21489;DHT22;10906;45.194;5.684;2023-03-03T19:06:08;8.20;90.40
21489;DHT22;10906;45.194;5.684;2023-03-03T19:08:57;7.80;90.50
21489;DHT22;10906;45.194;5.684;2023-03-03T19:11:48;7.70;90.50
21489;DHT22;10906;45.194;5.684;2023-03-03T19:31:32;7.00;90.00
21489;DHT22;10906;45.194;5.684;2023-03-03T19:43:17;7.70;90.20
21489;DHT22;10906;45.194;5.684;2023-03-03T19:49:38;7.60;90.40
21489;DHT22;10906;45.194;5.684;2023-03-03T19:52:27;7.70;90.40
21489;DHT22;10906;45.194;5.684;2023-03-03T19:55:30;7.60;90.40
21489;DHT22;10906;45.194;5.684;2023-03-03T20:01:24;7.60;90.40
21489;DHT22;10906;45.194;5.684;2023-03-03T20:16:22;7.60;90.70
21489;DHT22;10906;45.194;5.684;2023-03-03T20:40:25;7.50;90.60
21489;DHT22;10906;45.194;5.684;2023-03-03T20:46:21;7.40;90.60
21489;DHT22;10906;45.194;5.684;2023-03-03T20:49:29;7.40;90.80
21489;DHT22;10906;45.194;5.684;2023-03-03T21:01:06;7.40;91.00
21489;DHT22;10906;45.194;5.684;2023-03-03T21:03:50;7.40;91.00
21489;DHT22;10906;45.194;5.684;2023-03-03T21:06:38;7.30;91.00
21489;DHT22;10906;45.194;5.684;2023-03-03T21:12:27;7.30;91.50
21489;DHT22;10906;45.194;5.684;2023-03-03T21:15:24;7.30;91.10
21489;DHT22;10906;45.194;5.684;2023-03-03T21:18:20;7.30;91.10
21489;DHT22;10906;45.194;5.684;2023-03-03T21:21:07;7.20;91.10
21489;DHT22;10906;45.194;5.684;2023-03-03T21:23:51;7.20;91.20
21489;DHT22;10906;45.194;5.684;2023-03-03T21:26:52;7.20;91.20
21489;DHT22;10906;45.194;5.684;2023-03-03T21:29:37;7.10;91.20
21489;DHT22;10906;45.194;5.684;2023-03-03T21:32:37;7.10;91.30
21489;DHT22;10906;45.194;5.684;2023-03-03T21:35:22;7.10;91.30
21489;DHT22;10906;45.194;5.684;2023-03-03T21:38:07;7.00;91.20
21489;DHT22;10906;45.194;5.684;2023-03-03T21:40:59;7.00;91.30
21489;DHT22;10906;45.194;5.684;2023-03-03T21:43:46;7.00;91.70
21489;DHT22;10906;45.194;5.684;2023-03-03T21:46:31;7.00;91.40
21489;DHT22;10906;45.194;5.684;2023-03-03T21:49:15;7.00;91.40
21489;DHT22;10906;45.194;5.684;2023-03-03T21:52:00;7.00;91.40
21489;DHT22;10906;45.194;5.684;2023-03-03T21:54:46;7.00;91.40
21489;DHT22;10906;45.194;5.684;2023-03-03T21:57:30;7.00;91.50
21489;DHT22;10906;45.194;5.684;2023-03-03T22:00:15;7.00;91.60
21489;DHT22;10906;45.194;5.684;2023-03-03T22:03:01;7.00;91.80
21489;DHT22;10906;45.194;5.684;2023-03-03T22:05:47;7.00;91.60
21489;DHT22;10906;45.194;5.684;2023-03-03T22:08:34;6.90;91.50
21489;DHT22;10906;45.194;5.684;2023-03-03T22:11:19;6.90;91.60
21489;DHT22;10906;45.194;5.684;2023-03-03T22:14:03;6.80;91.70
21489;DHT22;10906;45.194;5.684;2023-03-03T22:16:47;6.80;91.90
21489;DHT22;10906;45.194;5.684;2023-03-03T22:19:32;6.80;92.00
21489;DHT22;10906;45.194;5.684;2023-03-03T22:22:17;6.80;92.00
21489;DHT22;10906;45.194;5.684;2023-03-03T22:25:01;6.80;92.00
21489;DHT22;10906;45.194;5.684;2023-03-03T22:27:46;6.80;92.00
21489;DHT22;10906;45.194;5.684;2023-03-03T22:30:30;6.80;92.00
21489;DHT22;10906;45.194;5.684;2023-03-03T22:33:15;6.80;92.00
21489;DHT22;10906;45.194;5.684;2023-03-03T22:35:59;6.80;92.00
21489;DHT22;10906;45.194;5.684;2023-03-03T22:38:45;6.70;92.00
21489;DHT22;10906;45.194;5.684;2023-03-03T22:41:30;6.70;92.00
21489;DHT22;10906;45.194;5.684;2023-03-03T22:44:14;6.80;92.30
21489;DHT22;10906;45.194;5.684;2023-03-03T22:46:59;6.80;92.10
21489;DHT22;10906;45.194;5.684;2023-03-03T22:49:43;6.80;92.00
21489;DHT22;10906;45.194;5.684;2023-03-03T22:52:27;6.80;92.00
21489;DHT22;10906;45.194;5.684;2023-03-03T22:55:11;6.80;92.00
21489;DHT22;10906;45.194;5.684;2023-03-03T22:57:55;6.80;92.60
